This is the latest recevied weather packets stored in our database for station/object IK6IHU-3. If no packets are shown the sender has not sent any weather packets the latest 10 day(s).
| Time | Temp. | Humidity | Pressure | Rain* | Wind** | Luminosity | Snow |
|---|---|---|---|---|---|---|---|
| 1777731316 | 18.33° C | 42% | 1021.8 hPa | 0 mm | - | 0 W/m² | - |
| 1777731256 | 17.78° C | 40% | 1021.6 hPa | 0 mm | - | 0 W/m² | - |
| 1777731196 | 18.33° C | 43% | 1021.8 hPa | 0 mm | - | 0 W/m² | - |
| 1777731136 | 17.78° C | 38% | 1021.8 hPa | 0 mm | - | 0 W/m² | - |
| 1777731076 | 17.78° C | 41% | 1021.5 hPa | 0 mm | - | 0 W/m² | - |
| 1777731016 | 17.78° C | 41% | 1022 hPa | 0 mm | - | 0 W/m² | - |
| 1777730956 | 17.78° C | 41% | 1021.5 hPa | 0 mm | - | 0 W/m² | - |
| 1777730896 | 17.22° C | 41% | 1021.7 hPa | 0 mm | - | 0 W/m² | - |
| 1777730836 | 17.22° C | 40% | 1021.7 hPa | 0 mm | - | 0 W/m² | - |
| 1777730776 | 17.22° C | 40% | 1021.6 hPa | 0 mm | - | 0 W/m² | - |
| 1777730716 | 17.78° C | 42% | 1021.8 hPa | 0 mm | - | 0 W/m² | - |
| 1777730656 | 17.22° C | 42% | 1021.7 hPa | 0 mm | - | 0 W/m² | - |
| 1777730536 | 17.78° C | 43% | 1021.7 hPa | 0 mm | - | 0 W/m² | - |
| 1777730476 | 17.78° C | 43% | 1021.7 hPa | 0 mm | - | 0 W/m² | - |
| 1777730416 | 17.78° C | 43% | 1021.8 hPa | 0 mm | - | 0 W/m² | - |
| 1777730356 | 17.78° C | 43% | 1021.8 hPa | 0 mm | - | 0 W/m² | - |
| 1777730296 | 17.22° C | 40% | 1021.9 hPa | 0 mm | - | 0 W/m² | - |
| 1777730236 | 17.22° C | 41% | 1021.7 hPa | 0 mm | - | 0 W/m² | - |
| 1777730176 | 17.22° C | 40% | 1021.5 hPa | 0 mm | - | 0 W/m² | - |
| 1777730116 | 17.22° C | 40% | 1021.6 hPa | 0 mm | - | 0 W/m² | - |
| 1777729937 | 18.33° C | 42% | 1021.7 hPa | 0 mm | - | 0 W/m² | - |
| 1777729876 | 17.78° C | 41% | 1021.7 hPa | 0 mm | - | 0 W/m² | - |
| 1777729816 | 17.78° C | 41% | 1021.8 hPa | 0 mm | - | 0 W/m² | - |
| 1777729756 | 17.78° C | 41% | 1021.5 hPa | 0 mm | - | 0 W/m² | - |
| 1777729636 | 17.78° C | 42% | 1021.9 hPa | 0 mm | - | 0 W/m² | - |
* Rain latest hour (hover to see other rain measurements)
** Current wind speed in m/s (hover to see current wind gust speed)